This is the latest recevied weather packets stored in our database for station/object OE6JVE-13. If no packets are shown the sender has not sent any weather packets the latest 1 day(s).
| Time | Temp. | Humidity | Pressure | Rain* | Wind** | Luminosity | Snow |
|---|---|---|---|---|---|---|---|
| 1777963533 | 18.89° C | 36% | 1004.3 hPa | 0 mm | 0 m/s | - | - |
| 1777962941 | 18.89° C | 35% | 1004.2 hPa | 0 mm | 1.34 m/s, 181° | - | - |
| 1777962348 | 19.44° C | 36% | 1004.2 hPa | 0 mm | 0 m/s | - | - |
| 1777961756 | 19.44° C | 36% | 1004.3 hPa | 0 mm | 0.89 m/s, 186° | - | - |
| 1777961164 | 18.89° C | 37% | 1004.3 hPa | 0 mm | 1.34 m/s, 180° | - | - |
| 1777960572 | 18.33° C | 38% | 1004.3 hPa | 0 mm | 2.68 m/s, 180° | - | - |
| 1777959979 | 17.22° C | 46% | 1004.2 hPa | 0 mm | 0.89 m/s, 222° | - | - |
| 1777959322 | 17.22° C | 47% | 1004.1 hPa | 0 mm | 0 m/s | - | - |
| 1777958730 | 16.67° C | 46% | 1004.2 hPa | 0 mm | 1.34 m/s, 192° | - | - |
| 1777958138 | 16.11° C | 49% | 1004.1 hPa | 0 mm | 0.89 m/s, 195° | - | - |
| 1777957546 | 13.33° C | 60% | 1004.1 hPa | 0 mm | 1.34 m/s, 157° | - | - |
| 1777956954 | 12.22° C | 66% | 1004.1 hPa | 0 mm | 0.45 m/s, 258° | - | - |
| 1777956362 | 11.67° C | 66% | 1004.2 hPa | 0 mm | 0 m/s | - | - |
| 1777955770 | 11.67° C | 64% | 1004.2 hPa | 0 mm | 0.45 m/s, 251° | - | - |
| 1777955178 | 11.67° C | 62% | 1004.3 hPa | 0 mm | 0.45 m/s, 243° | - | - |
| 1777954520 | 12.22° C | 58% | 1004.4 hPa | 0 mm | 0.45 m/s, 217° | - | - |
| 1777953928 | 12.78° C | 57% | 1004.4 hPa | 0 mm | 0.45 m/s, 225° | - | - |
| 1777953336 | 12.78° C | 56% | 1004.4 hPa | 0 mm | 0.45 m/s, 237° | - | - |
| 1777952744 | 12.22° C | 60% | 1004.2 hPa | 0 mm | 1.34 m/s, 253° | - | - |
| 1777952152 | 11.67° C | 62% | 1004.3 hPa | 0 mm | 1.34 m/s, 229° | - | - |
| 1777951560 | 11.67° C | 62% | 1004.4 hPa | 0 mm | 0.45 m/s, 279° | - | - |
| 1777950968 | 11.67° C | 62% | 1004.3 hPa | 0 mm | 0.45 m/s, 198° | - | - |
| 1777950376 | 11.67° C | 61% | 1004.4 hPa | 0 mm | 0 m/s | - | - |
| 1777949126 | 13.33° C | 52% | 1004.7 hPa | 0 mm | 0 m/s | - | - |
| 1777948534 | 14.44° C | 49% | 1004.7 hPa | 0 mm | 0.45 m/s, 218° | - | - |
* Rain latest hour (hover to see other rain measurements)
** Current wind speed in m/s (hover to see current wind gust speed)